createdAt,value
2022-08-05T00:00:53.178Z,22.69
2022-08-05T00:03:57.033Z,22.70
2022-08-05T00:07:00.171Z,22.83
2022-08-05T00:10:27.268Z,22.91
2022-08-05T00:13:38.942Z,22.80
2022-08-05T00:16:52.433Z,22.79
2022-08-05T00:20:02.520Z,22.84
2022-08-05T00:23:13.039Z,22.81
2022-08-05T00:26:17.796Z,22.83
2022-08-05T00:29:25.382Z,22.71
2022-08-05T00:32:28.141Z,22.68
2022-08-05T00:35:36.331Z,22.71
2022-08-05T00:38:55.732Z,22.63
2022-08-05T00:42:01.921Z,22.61
2022-08-05T00:45:11.762Z,22.58
2022-08-05T00:48:18.487Z,22.50
2022-08-05T00:51:50.030Z,22.35
2022-08-05T00:54:52.550Z,22.35
2022-08-05T00:57:58.643Z,22.25
2022-08-05T01:01:03.727Z,22.19
2022-08-05T01:04:20.276Z,22.14
2022-08-05T01:07:31.712Z,22.07
2022-08-05T01:10:55.057Z,21.97
2022-08-05T01:14:00.323Z,21.86
2022-08-05T01:17:07.408Z,21.76
2022-08-05T01:23:36.699Z,21.65
2022-08-05T01:26:45.481Z,21.55
2022-08-05T01:29:54.722Z,21.49
2022-08-05T01:33:08.391Z,21.48
2022-08-05T01:39:59.176Z,21.42
2022-08-05T01:43:03.600Z,21.44
2022-08-05T01:46:07.211Z,21.30
2022-08-05T01:49:23.246Z,21.26
2022-08-05T01:52:33.012Z,21.26
2022-08-05T01:55:38.711Z,21.14
2022-08-05T01:58:45.602Z,21.07
2022-08-05T02:01:50.997Z,21.06
2022-08-05T02:04:58.327Z,21.02
2022-08-05T02:08:01.826Z,20.99
2022-08-05T02:11:11.760Z,20.89
2022-08-05T02:14:23.360Z,20.89
2022-08-05T02:18:32.102Z,20.86
2022-08-05T02:21:03.835Z,20.89
2022-08-05T02:24:10.812Z,20.88
2022-08-05T02:27:17.643Z,20.88
2022-08-05T02:30:51.700Z,20.80
2022-08-05T02:34:19.383Z,20.76
2022-08-05T02:37:22.662Z,20.70
2022-08-05T02:40:26.312Z,20.59
2022-08-05T02:43:34.470Z,20.60
2022-08-05T02:47:00.346Z,20.57
2022-08-05T02:50:06.535Z,20.58
2022-08-05T02:53:18.727Z,20.59
2022-08-05T02:56:21.956Z,20.59
2022-08-05T02:59:27.060Z,20.51
2022-08-05T03:02:44.277Z,20.52
2022-08-05T03:06:55.097Z,20.48
2022-08-05T03:09:15.825Z,20.51
2022-08-05T03:12:41.944Z,20.46
2022-08-05T03:15:45.759Z,20.49
2022-08-05T03:18:48.773Z,20.53
2022-08-05T03:22:16.243Z,20.58
2022-08-05T03:25:59.755Z,20.62
2022-08-05T03:28:43.029Z,20.61
2022-08-05T03:31:57.417Z,20.53
2022-08-05T03:35:04.492Z,20.53
2022-08-05T03:38:14.319Z,20.52
2022-08-05T03:41:19.022Z,20.46
2022-08-05T03:44:29.072Z,20.49
2022-08-05T03:47:35.554Z,20.54
2022-08-05T03:52:48.835Z,20.53
2022-08-05T03:55:49.743Z,20.56
2022-08-05T03:58:00.471Z,20.62
2022-08-05T04:01:05.020Z,20.51
2022-08-05T04:04:10.673Z,20.50
2022-08-05T04:07:17.784Z,20.49
2022-08-05T04:10:37.569Z,20.55
2022-08-05T04:13:51.389Z,20.58
2022-08-05T04:16:57.385Z,20.59
2022-08-05T04:19:59.381Z,20.59
2022-08-05T04:23:01.958Z,20.64
2022-08-05T04:26:04.673Z,20.74
2022-08-05T04:29:07.830Z,20.79
2022-08-05T04:32:11.737Z,20.87
2022-08-05T04:35:19.690Z,20.98
2022-08-05T04:38:39.178Z,21.07
2022-08-05T04:41:42.475Z,21.17
2022-08-05T04:44:46.551Z,21.26
2022-08-05T04:47:50.420Z,21.38
2022-08-05T04:51:02.949Z,21.78
2022-08-05T04:54:20.018Z,22.29
2022-08-05T04:57:22.276Z,22.41
2022-08-05T05:00:31.270Z,22.55
2022-08-05T05:03:41.892Z,22.42
2022-08-05T05:06:52.010Z,22.37
2022-08-05T05:10:02.124Z,22.52
2022-08-05T05:13:06.083Z,22.60
2022-08-05T05:16:08.554Z,22.86
2022-08-05T05:19:18.629Z,22.99
2022-08-05T05:22:22.884Z,22.96
2022-08-05T05:25:40.462Z,23.25
2022-08-05T05:28:45.004Z,23.64
2022-08-05T05:31:47.219Z,23.81
2022-08-05T05:34:49.779Z,23.59
2022-08-05T05:38:02.526Z,23.59
2022-08-05T05:41:04.846Z,23.59
2022-08-05T05:44:35.545Z,23.77
2022-08-05T05:48:08.039Z,24.00
2022-08-05T05:50:56.183Z,24.07
2022-08-05T05:54:00.049Z,24.13
2022-08-05T05:57:02.740Z,24.23
2022-08-05T06:00:12.854Z,24.27
2022-08-05T06:03:39.785Z,24.50
2022-08-05T06:06:52.979Z,24.93
2022-08-05T06:10:04.395Z,25.09
2022-08-05T06:13:09.724Z,25.60
2022-08-05T06:16:30.335Z,26.21
2022-08-05T06:19:35.608Z,25.90
2022-08-05T06:22:38.094Z,26.01
2022-08-05T06:26:13.511Z,25.79
2022-08-05T06:29:23.451Z,25.80
2022-08-05T06:32:28.826Z,25.83
2022-08-05T06:36:06.972Z,25.91
2022-08-05T06:39:02.329Z,26.01
2022-08-05T06:42:05.991Z,26.10
2022-08-05T06:45:09.414Z,26.32
2022-08-05T06:48:47.193Z,26.63
2022-08-05T06:51:34.228Z,26.82
2022-08-05T06:54:41.059Z,26.64
2022-08-05T06:58:03.524Z,26.69
2022-08-05T07:01:08.093Z,26.86
2022-08-05T07:04:16.184Z,27.04
2022-08-05T07:07:24.161Z,27.25
2022-08-05T07:10:52.337Z,27.26
2022-08-05T07:14:15.333Z,27.32
2022-08-05T07:18:02.422Z,27.37
2022-08-05T07:20:45.385Z,27.72
2022-08-05T07:23:49.946Z,28.21
2022-08-05T07:26:54.531Z,29.43
2022-08-05T07:30:27.579Z,31.46
2022-08-05T07:33:36.438Z,34.01
2022-08-05T07:36:41.106Z,36.98
2022-08-05T07:40:04.431Z,38.99
2022-08-05T07:43:20.504Z,40.39
2022-08-05T07:46:25.100Z,40.42
2022-08-05T07:49:28.330Z,40.81
2022-08-05T07:52:31.108Z,41.21
2022-08-05T07:55:44.371Z,39.93
2022-08-05T07:58:58.867Z,41.06
2022-08-05T08:02:03.109Z,41.94
2022-08-05T08:05:06.126Z,42.54
2022-08-05T08:08:12.192Z,42.59
2022-08-05T08:11:16.158Z,42.70
2022-08-05T08:14:19.167Z,42.43
2022-08-05T08:17:22.230Z,42.10
2022-08-05T08:21:00.085Z,38.79
2022-08-05T08:24:02.764Z,35.99
2022-08-05T08:27:07.381Z,35.22
2022-08-05T08:30:29.811Z,35.31
2022-08-05T08:33:37.344Z,33.81
2022-08-05T08:36:49.015Z,33.51
2022-08-05T08:39:54.839Z,33.17
2022-08-05T08:42:57.413Z,33.24
2022-08-05T08:46:19.640Z,33.28
2022-08-05T08:50:07.582Z,33.28
2022-08-05T08:52:53.671Z,32.49
2022-08-05T08:56:03.041Z,32.63
2022-08-05T08:59:14.830Z,32.94
2022-08-05T09:02:24.170Z,32.61
2022-08-05T09:05:38.324Z,32.66
2022-08-05T09:08:41.759Z,32.65
2022-08-05T09:11:53.341Z,32.99
2022-08-05T09:15:05.682Z,33.38
2022-08-05T09:18:09.035Z,33.18
2022-08-05T09:21:11.706Z,33.36
2022-08-05T09:24:22.791Z,33.50
2022-08-05T09:28:04.450Z,33.70
2022-08-05T09:30:59.370Z,33.55
2022-08-05T09:34:04.337Z,33.73
2022-08-05T09:37:17.023Z,33.96
2022-08-05T09:40:30.159Z,34.03
2022-08-05T09:43:40.560Z,33.81
2022-08-05T09:46:51.828Z,33.69
2022-08-05T09:50:02.408Z,33.56
2022-08-05T09:53:05.562Z,33.91
2022-08-05T09:56:12.972Z,34.05
2022-08-05T09:59:17.552Z,34.07
2022-08-05T10:02:30.686Z,34.32
2022-08-05T10:05:33.477Z,34.45
2022-08-05T10:08:38.197Z,34.70
2022-08-05T10:11:41.558Z,34.50
2022-08-05T10:14:44.883Z,34.19
2022-08-05T10:18:06.128Z,34.51
2022-08-05T10:21:15.678Z,34.26
2022-08-05T10:24:19.528Z,34.15
2022-08-05T10:28:13.290Z,34.49
2022-08-05T10:32:48.641Z,34.29
2022-08-05T10:34:12.022Z,34.85
2022-08-05T10:37:14.995Z,35.05
2022-08-05T10:40:28.202Z,35.09
2022-08-05T10:43:35.818Z,34.83
2022-08-05T10:46:46.258Z,35.23
2022-08-05T10:50:32.545Z,35.44
2022-08-05T10:53:42.561Z,35.10
2022-08-05T10:56:49.297Z,34.76
2022-08-05T11:00:13.360Z,35.46
2022-08-05T11:03:23.392Z,35.84
2022-08-05T11:06:30.787Z,35.86
2022-08-05T11:10:03.960Z,36.11
2022-08-05T11:13:32.246Z,36.10
2022-08-05T11:16:55.944Z,36.29
2022-08-05T11:20:16.813Z,36.00
2022-08-05T11:23:33.444Z,35.89
2022-08-05T11:26:36.246Z,35.72
2022-08-05T11:29:41.022Z,35.69
2022-08-05T11:32:43.300Z,35.95
2022-08-05T11:36:08.365Z,36.43
2022-08-05T11:39:12.311Z,36.35
2022-08-05T11:42:18.396Z,36.50
2022-08-05T11:46:14.489Z,36.14
2022-08-05T11:48:43.679Z,36.37
2022-08-05T11:51:49.508Z,36.16
2022-08-05T11:54:55.034Z,36.25
2022-08-05T11:58:09.677Z,36.16
2022-08-05T12:01:15.538Z,36.27
2022-08-05T12:04:21.702Z,36.51
2022-08-05T12:08:08.963Z,36.07
2022-08-05T12:10:48.822Z,36.26
2022-08-05T12:13:58.612Z,36.26
2022-08-05T12:18:00.727Z,36.18
2022-08-05T12:20:33.541Z,36.57
2022-08-05T12:23:35.925Z,36.59
2022-08-05T12:26:50.172Z,36.33
2022-08-05T12:30:03.345Z,35.84
2022-08-05T12:33:07.295Z,35.23
2022-08-05T12:36:27.917Z,35.99
2022-08-05T12:39:37.504Z,35.97
2022-08-05T12:42:41.204Z,35.75
2022-08-05T12:45:53.218Z,35.82
2022-08-05T12:48:59.276Z,36.01
2022-08-05T12:52:13.901Z,35.61
2022-08-05T12:55:26.320Z,35.80
2022-08-05T12:58:38.591Z,35.77
2022-08-05T13:02:06.998Z,36.12
2022-08-05T13:05:12.541Z,36.29
2022-08-05T13:08:18.200Z,36.66
2022-08-05T13:11:57.883Z,36.66
2022-08-05T13:14:44.619Z,36.54
2022-08-05T13:17:56.193Z,36.15
2022-08-05T13:21:01.412Z,35.51
2022-08-05T13:24:04.357Z,35.78
2022-08-05T13:27:06.448Z,35.99
2022-08-05T13:30:33.561Z,36.02
2022-08-05T13:34:20.920Z,36.02
2022-08-05T13:36:58.400Z,35.60
2022-08-05T13:40:16.439Z,35.79
2022-08-05T13:43:22.793Z,35.92
2022-08-05T13:49:47.662Z,36.32
2022-08-05T13:52:50.692Z,36.25
2022-08-05T13:56:00.190Z,36.27
2022-08-05T13:59:06.245Z,36.31
2022-08-05T14:02:26.712Z,36.32
2022-08-05T14:06:24.714Z,36.42
2022-08-05T14:08:54.286Z,36.37
2022-08-05T14:12:04.057Z,36.26
2022-08-05T14:16:04.465Z,36.07
2022-08-05T14:18:40.894Z,35.76
2022-08-05T14:22:10.184Z,35.41
2022-08-05T14:25:21.568Z,35.27
2022-08-05T14:28:26.211Z,35.44
2022-08-05T14:32:03.917Z,35.52
2022-08-05T14:34:51.849Z,35.46
2022-08-05T14:37:55.665Z,35.50
2022-08-05T14:41:00.099Z,35.45
2022-08-05T14:44:19.896Z,35.45
2022-08-05T14:48:03.644Z,35.53
2022-08-05T14:50:45.744Z,35.67
2022-08-05T14:54:26.869Z,35.07
2022-08-05T14:57:13.687Z,35.01
2022-08-05T15:00:16.231Z,35.02
2022-08-05T15:03:22.963Z,34.92
2022-08-05T15:06:28.128Z,34.86
2022-08-05T15:09:51.770Z,34.99
2022-08-05T15:13:01.068Z,35.02
2022-08-05T15:16:05.866Z,35.18
2022-08-05T15:19:23.603Z,35.39
2022-08-05T15:22:27.328Z,35.22
2022-08-05T15:25:51.441Z,35.22
2022-08-05T15:28:52.834Z,35.25
2022-08-05T15:31:55.153Z,34.93
2022-08-05T15:34:57.748Z,35.13
2022-08-05T15:38:34.582Z,35.14
2022-08-05T15:41:24.606Z,35.13
2022-08-05T15:44:46.090Z,34.95
2022-08-05T15:47:48.264Z,34.78
2022-08-05T15:50:50.730Z,34.66
2022-08-05T15:53:53.314Z,34.74
2022-08-05T15:56:55.369Z,34.73
2022-08-05T15:59:57.902Z,34.79
2022-08-05T16:03:00.478Z,34.77
2022-08-05T16:06:02.808Z,34.74
2022-08-05T16:09:06.667Z,34.62
2022-08-05T16:12:12.278Z,34.41
2022-08-05T16:15:18.593Z,34.32
2022-08-05T16:18:20.897Z,34.29
2022-08-05T16:21:58.619Z,34.15
2022-08-05T16:24:52.381Z,34.09
2022-08-05T16:28:05.247Z,34.13
2022-08-05T16:31:08.225Z,34.23
2022-08-05T16:34:13.044Z,34.17
2022-08-05T16:38:15.022Z,34.02
2022-08-05T16:40:39.575Z,33.94
2022-08-05T16:43:42.177Z,33.81
2022-08-05T16:46:56.151Z,33.75
2022-08-05T16:49:58.511Z,33.75
2022-08-05T16:53:12.089Z,33.64
2022-08-05T16:56:24.034Z,33.55
2022-08-05T16:59:27.881Z,33.35
2022-08-05T17:02:32.801Z,33.37
2022-08-05T17:05:34.719Z,33.27
2022-08-05T17:08:53.316Z,33.10
2022-08-05T17:11:59.315Z,32.97
2022-08-05T17:15:02.125Z,32.85
2022-08-05T17:18:04.950Z,32.72
2022-08-05T17:21:16.426Z,32.59
2022-08-05T17:24:35.232Z,32.44
2022-08-05T17:27:40.962Z,32.28
2022-08-05T17:30:51.871Z,32.13
2022-08-05T17:33:56.524Z,31.98
2022-08-05T17:37:04.643Z,31.76
2022-08-05T17:40:25.158Z,31.57
2022-08-05T17:43:46.502Z,31.37
2022-08-05T17:46:49.428Z,31.19
2022-08-05T17:50:04.061Z,31.00
2022-08-05T17:53:08.618Z,30.79
2022-08-05T17:56:11.858Z,30.56
2022-08-05T17:59:16.031Z,30.35
2022-08-05T18:02:28.597Z,30.10
2022-08-05T18:05:35.595Z,29.85
2022-08-05T18:08:44.277Z,29.62
2022-08-05T18:11:52.387Z,29.39
2022-08-05T18:14:55.209Z,29.24
2022-08-05T18:17:58.612Z,29.08
2022-08-05T18:21:05.100Z,28.93
2022-08-05T18:24:16.769Z,28.80
2022-08-05T18:27:20.509Z,28.61
2022-08-05T18:30:23.205Z,28.44
2022-08-05T18:33:28.318Z,28.35
2022-08-05T18:36:53.054Z,28.18
2022-08-05T18:41:03.396Z,28.02
2022-08-05T18:43:20.834Z,27.89
2022-08-05T18:46:29.046Z,27.80
2022-08-05T18:49:58.058Z,27.72
2022-08-05T18:53:13.138Z,27.60
2022-08-05T18:56:25.235Z,27.51
2022-08-05T18:59:43.559Z,27.42
2022-08-05T19:02:52.387Z,27.32
2022-08-05T19:06:13.417Z,27.22
2022-08-05T19:09:19.125Z,27.13
2022-08-05T19:12:23.503Z,27.03
2022-08-05T19:15:59.816Z,26.94
2022-08-05T19:18:53.899Z,26.81
2022-08-05T19:21:58.863Z,26.72
2022-08-05T19:25:02.542Z,26.62
2022-08-05T19:28:06.925Z,26.59
2022-08-05T19:31:19.223Z,26.53
2022-08-05T19:34:22.012Z,26.50
2022-08-05T19:37:29.956Z,26.43
2022-08-05T19:40:49.028Z,26.39
2022-08-05T19:44:13.702Z,26.30
2022-08-05T19:47:16.621Z,26.28
2022-08-05T19:50:21.025Z,26.25
2022-08-05T19:54:04.549Z,26.22
2022-08-05T19:56:51.271Z,26.17
2022-08-05T20:00:02.386Z,26.06
2022-08-05T20:03:09.144Z,26.00
2022-08-05T20:06:15.525Z,25.96
2022-08-05T20:09:19.276Z,25.91
2022-08-05T20:12:24.430Z,25.81
2022-08-05T20:15:52.050Z,25.72
2022-08-05T20:18:55.424Z,25.73
2022-08-05T20:21:59.560Z,25.91
2022-08-05T20:25:01.696Z,25.74
2022-08-05T20:28:04.597Z,25.76
2022-08-05T20:31:06.720Z,25.86
2022-08-05T20:34:10.696Z,25.94
2022-08-05T20:37:17.893Z,25.97
2022-08-05T20:40:37.809Z,25.94
2022-08-05T20:43:58.728Z,25.97
2022-08-05T20:47:05.122Z,25.91
2022-08-05T20:50:11.961Z,25.88
2022-08-05T20:53:15.942Z,25.85
2022-08-05T20:56:42.146Z,26.10
2022-08-05T21:00:10.740Z,25.83
2022-08-05T21:03:07.859Z,25.76
2022-08-05T21:06:27.636Z,25.67
2022-08-05T21:09:30.799Z,25.49
2022-08-05T21:12:37.910Z,25.43
2022-08-05T21:15:44.329Z,25.32
2022-08-05T21:18:54.707Z,25.27
2022-08-05T21:21:59.334Z,25.23
2022-08-05T21:25:03.298Z,25.18
2022-08-05T21:28:07.928Z,25.10
2022-08-05T21:31:10.675Z,25.00
2022-08-05T21:34:17.732Z,24.94
2022-08-05T21:37:20.574Z,24.90
2022-08-05T21:40:23.807Z,24.87
2022-08-05T21:43:25.985Z,24.80
2022-08-05T21:46:28.617Z,24.74
2022-08-05T21:49:58.636Z,24.67
2022-08-05T21:53:08.341Z,24.59
2022-08-05T21:56:18.746Z,24.47
2022-08-05T21:59:24.224Z,24.47
2022-08-05T22:02:29.052Z,24.42
2022-08-05T22:05:48.708Z,24.35
2022-08-05T22:08:52.421Z,24.16
2022-08-05T22:11:56.293Z,24.12
2022-08-05T22:14:58.905Z,24.08
2022-08-05T22:18:03.982Z,24.08
2022-08-05T22:21:14.151Z,24.04
2022-08-05T22:24:51.809Z,23.93
2022-08-05T22:28:11.309Z,23.91
2022-08-05T22:31:18.121Z,23.82
2022-08-05T22:34:28.647Z,23.73
2022-08-05T22:37:59.328Z,23.67
2022-08-05T22:40:58.583Z,23.69
2022-08-05T22:44:04.612Z,23.69
2022-08-05T22:47:08.122Z,23.61
2022-08-05T22:50:20.485Z,23.61
2022-08-05T22:53:35.922Z,23.57
2022-08-05T22:56:39.945Z,23.50
2022-08-05T22:59:51.869Z,23.47
2022-08-05T23:03:01.522Z,23.46
2022-08-05T23:06:09.332Z,23.40
2022-08-05T23:09:26.975Z,23.45
2022-08-05T23:12:32.439Z,23.43
2022-08-05T23:15:38.529Z,23.35
2022-08-05T23:18:47.581Z,23.29
2022-08-05T23:21:51.503Z,23.19
2022-08-05T23:25:03.458Z,23.19
2022-08-05T23:28:12.558Z,23.10
2022-08-05T23:31:17.928Z,23.10
2022-08-05T23:34:24.564Z,23.11
2022-08-05T23:37:27.363Z,23.03
2022-08-05T23:40:49.746Z,23.06
2022-08-05T23:44:06.158Z,23.02
2022-08-05T23:47:14.400Z,22.96
2022-08-05T23:50:20.242Z,22.95
2022-08-05T23:53:23.297Z,22.93
2022-08-05T23:56:33.697Z,22.91
